createdAt,value
2023-03-05T00:04:39.795Z,76.57
2023-03-05T00:09:41.232Z,77.48
2023-03-05T00:14:42.692Z,76.38
2023-03-05T00:19:44.268Z,77.03
2023-03-05T00:24:45.704Z,77.44
2023-03-05T00:29:47.239Z,76.91
2023-03-05T00:34:49.980Z,76.02
2023-03-05T00:39:51.429Z,76.29
2023-03-05T00:44:52.867Z,76.17
2023-03-05T00:49:54.299Z,76.39
2023-03-05T00:54:55.735Z,76.33
2023-03-05T00:59:57.178Z,76.03
2023-03-05T01:04:58.661Z,75.71
2023-03-05T01:10:00.716Z,74.88
2023-03-05T01:15:02.721Z,75.34
2023-03-05T01:20:05.970Z,75.88
2023-03-05T01:25:08.317Z,74.94
2023-03-05T01:30:10.810Z,74.55
2023-03-05T01:35:20.809Z,71.83
2023-03-05T01:40:28.391Z,71.79
2023-03-05T01:45:32.983Z,72.35
2023-03-05T01:50:34.904Z,71.56
2023-03-05T01:55:37.313Z,70.93
2023-03-05T02:00:43.966Z,71.53
2023-03-05T02:05:45.575Z,72.99
2023-03-05T02:10:56.284Z,73.75
2023-03-05T02:16:00.099Z,75.58
2023-03-05T02:21:04.311Z,73.28
2023-03-05T02:26:09.382Z,74.57
2023-03-05T02:31:17.480Z,75.83
2023-03-05T02:36:19.471Z,73.74
2023-03-05T02:41:21.253Z,72.68
2023-03-05T02:46:24.255Z,74.07
2023-03-05T02:51:25.809Z,73.56
2023-03-05T02:56:27.998Z,72.87
2023-03-05T03:01:29.837Z,73.27
2023-03-05T03:06:31.612Z,72.58
2023-03-05T03:11:33.068Z,74.12
2023-03-05T03:16:34.673Z,73.43
2023-03-05T03:21:36.192Z,71.78
2023-03-05T03:26:37.622Z,72.89
2023-03-05T03:31:41.061Z,72.99
2023-03-05T03:36:43.810Z,72.15
2023-03-05T03:41:48.247Z,73.13
2023-03-05T03:46:50.782Z,74.38
2023-03-05T03:51:58.127Z,73.36
2023-03-05T03:56:59.705Z,73.93
2023-03-05T04:02:01.136Z,72.18
2023-03-05T04:07:02.660Z,73.46
2023-03-05T04:12:04.368Z,75.71
2023-03-05T04:17:05.828Z,73.43
2023-03-05T04:22:11.108Z,74.06
2023-03-05T04:27:12.989Z,73.93
2023-03-05T04:32:14.742Z,75.91
2023-03-05T04:37:16.346Z,75.13
2023-03-05T04:42:19.236Z,76.21
2023-03-05T04:47:20.722Z,76.46
2023-03-05T04:52:22.162Z,77.93
2023-03-05T04:57:24.138Z,77.53
2023-03-05T05:02:25.703Z,77.42
2023-03-05T05:07:27.202Z,78.69
2023-03-05T05:12:30.659Z,77.77
2023-03-05T05:17:33.043Z,78.71
2023-03-05T05:22:34.794Z,77.98
2023-03-05T05:27:36.740Z,78.43
2023-03-05T05:32:38.233Z,78.70
2023-03-05T05:37:39.739Z,78.04
2023-03-05T05:42:41.261Z,77.19
2023-03-05T05:47:42.715Z,77.20
2023-03-05T05:52:44.160Z,77.01
2023-03-05T05:57:45.593Z,76.51
2023-03-05T06:02:47.083Z,76.72
2023-03-05T06:07:48.602Z,76.12
2023-03-05T06:12:50.056Z,76.25
2023-03-05T06:17:52.793Z,76.21
2023-03-05T06:22:55.262Z,75.34
2023-03-05T06:27:56.697Z,75.28
2023-03-05T06:32:58.233Z,75.67
2023-03-05T06:38:04.420Z,74.89
2023-03-05T06:43:05.899Z,76.00
2023-03-05T06:48:07.387Z,77.36
2023-03-05T06:53:08.880Z,76.69
2023-03-05T06:58:10.333Z,77.49
2023-03-05T07:03:12.694Z,78.06
2023-03-05T07:08:14.139Z,78.76
2023-03-05T07:13:15.579Z,78.49
2023-03-05T07:18:17.186Z,79.02
2023-03-05T07:23:18.608Z,79.43
2023-03-05T07:28:20.032Z,78.14
2023-03-05T07:33:21.490Z,78.97
2023-03-05T07:38:23.011Z,78.32
2023-03-05T07:43:27.523Z,78.50
2023-03-05T07:48:28.966Z,79.00
2023-03-05T07:53:30.450Z,79.20
2023-03-05T07:58:31.917Z,79.52
2023-03-05T08:03:33.360Z,80.47
2023-03-05T08:08:36.188Z,80.54
2023-03-05T08:13:38.189Z,80.74
2023-03-05T08:18:40.011Z,80.53
2023-03-05T08:23:41.488Z,80.69
2023-03-05T08:28:43.101Z,80.00
2023-03-05T08:33:44.760Z,80.05
2023-03-05T08:38:48.448Z,79.15
2023-03-05T08:43:51.587Z,79.20
2023-03-05T08:48:53.086Z,80.01
2023-03-05T08:53:56.371Z,80.81
2023-03-05T08:58:57.808Z,81.84
2023-03-05T09:04:00.257Z,81.98
2023-03-05T09:09:01.718Z,82.44
2023-03-05T09:14:03.820Z,83.13
2023-03-05T09:19:05.261Z,83.89
2023-03-05T09:24:07.302Z,83.88
2023-03-05T09:29:09.818Z,83.72
2023-03-05T09:34:11.806Z,83.27
2023-03-05T09:39:13.308Z,83.53
2023-03-05T09:44:43.297Z,82.78
2023-03-05T09:49:59.407Z,82.11
2023-03-05T09:55:01.508Z,80.60
2023-03-05T10:00:09.958Z,80.43
2023-03-05T10:05:51.107Z,77.06
2023-03-05T10:10:53.909Z,77.42
2023-03-05T10:16:28.920Z,75.79
2023-03-05T10:22:09.498Z,75.42
2023-03-05T10:27:33.626Z,73.64
2023-03-05T10:33:03.989Z,73.07
2023-03-05T10:38:36.755Z,75.03
2023-03-05T10:44:01.439Z,75.36
2023-03-05T10:49:15.453Z,76.63
2023-03-05T10:54:28.985Z,77.33
2023-03-05T10:59:32.233Z,75.30
2023-03-05T11:04:38.516Z,76.42
2023-03-05T11:09:40.082Z,77.16
2023-03-05T11:14:47.780Z,75.34
2023-03-05T11:19:49.354Z,76.33
2023-03-05T11:25:18.958Z,77.18
2023-03-05T11:30:27.103Z,77.01
2023-03-05T11:35:34.683Z,76.41
2023-03-05T11:40:36.231Z,75.63
2023-03-05T11:45:37.763Z,76.75
2023-03-05T11:50:41.611Z,78.13
2023-03-05T11:55:46.362Z,76.47
2023-03-05T12:00:48.682Z,77.25
2023-03-05T12:06:16.498Z,76.71
2023-03-05T12:11:27.694Z,76.69
2023-03-05T12:16:38.249Z,78.93
2023-03-05T12:21:43.335Z,78.05
2023-03-05T12:27:03.641Z,79.46
2023-03-05T12:32:26.065Z,79.44
2023-03-05T12:37:27.851Z,78.20
2023-03-05T12:42:29.356Z,78.04
2023-03-05T12:47:30.803Z,78.47
2023-03-05T12:52:34.107Z,78.05
2023-03-05T12:57:37.039Z,75.43
2023-03-05T13:02:45.650Z,76.35
2023-03-05T13:07:48.028Z,76.12
2023-03-05T13:12:53.533Z,76.30
2023-03-05T13:17:58.492Z,76.61
2023-03-05T13:23:23.269Z,77.36
2023-03-05T13:28:25.788Z,76.82
2023-03-05T13:33:30.038Z,76.71
2023-03-05T13:38:39.590Z,77.76
2023-03-05T13:43:45.477Z,78.53
2023-03-05T13:48:46.965Z,80.10
2023-03-05T13:53:49.872Z,77.90
2023-03-05T13:59:52.482Z,78.46
2023-03-05T14:04:54.044Z,81.58
2023-03-05T14:09:56.691Z,80.80
2023-03-05T14:14:59.846Z,80.55
2023-03-05T14:20:23.063Z,80.24
2023-03-05T14:25:34.950Z,79.69
2023-03-05T14:35:52.600Z,79.50
2023-03-05T14:40:54.154Z,80.00
2023-03-05T14:45:55.645Z,81.68
2023-03-05T14:50:58.233Z,83.71
2023-03-05T14:55:59.754Z,83.74
2023-03-05T15:01:01.692Z,84.47
2023-03-05T15:06:03.328Z,83.78
2023-03-05T15:11:07.667Z,84.18
2023-03-05T15:16:14.959Z,83.94
2023-03-05T15:21:16.481Z,83.48
2023-03-05T15:26:17.975Z,84.28
2023-03-05T15:31:19.516Z,84.07
2023-03-05T15:36:20.963Z,83.36
2023-03-05T15:41:22.586Z,83.70
2023-03-05T15:46:24.066Z,82.95
2023-03-05T15:51:25.571Z,83.00
2023-03-05T15:56:27.031Z,82.49
2023-03-05T16:01:29.046Z,82.79
2023-03-05T16:06:31.784Z,82.11
2023-03-05T16:11:36.770Z,82.30
2023-03-05T16:16:38.544Z,82.46
2023-03-05T16:21:40.167Z,81.97
2023-03-05T16:26:42.457Z,81.91
2023-03-05T16:31:45.299Z,81.10
2023-03-05T16:36:52.586Z,81.40
2023-03-05T16:41:54.574Z,80.05
2023-03-05T16:46:56.448Z,78.71
2023-03-05T16:52:01.352Z,79.74
2023-03-05T16:57:09.155Z,79.37
2023-03-05T17:02:13.037Z,79.13
2023-03-05T17:07:14.470Z,77.04
2023-03-05T17:12:15.915Z,76.75
2023-03-05T17:17:17.574Z,78.76
2023-03-05T17:22:19.046Z,78.18
2023-03-05T17:27:22.602Z,77.35
2023-03-05T17:32:24.134Z,77.70
2023-03-05T17:37:26.003Z,78.78
2023-03-05T17:42:27.604Z,78.17
2023-03-05T17:47:32.587Z,78.34
2023-03-05T17:52:38.204Z,78.98
2023-03-05T17:57:41.647Z,79.54
2023-03-05T18:07:45.055Z,78.37
2023-03-05T18:12:47.300Z,78.58
2023-03-05T18:17:49.022Z,78.44
2023-03-05T18:22:50.644Z,79.02
2023-03-05T18:27:53.362Z,78.33
2023-03-05T18:32:55.267Z,79.92
2023-03-05T18:37:57.664Z,81.62
2023-03-05T18:43:00.949Z,82.14
2023-03-05T18:48:02.387Z,82.77
2023-03-05T18:53:03.816Z,81.93
2023-03-05T18:58:05.483Z,81.98
2023-03-05T19:03:07.664Z,82.38
2023-03-05T19:08:09.040Z,82.49
2023-03-05T19:13:27.744Z,81.88
2023-03-05T19:18:33.360Z,81.67
2023-03-05T19:23:34.786Z,82.04
2023-03-05T19:28:36.251Z,81.64
2023-03-05T19:33:37.715Z,82.34
2023-03-05T19:38:39.608Z,82.13
2023-03-05T19:43:41.081Z,81.33
2023-03-05T19:48:43.701Z,81.91
2023-03-05T19:53:45.938Z,82.05
2023-03-05T19:58:48.761Z,81.72
2023-03-05T20:03:52.129Z,81.64
2023-03-05T20:08:55.735Z,81.49
2023-03-05T20:13:57.324Z,82.04
2023-03-05T20:18:59.499Z,81.81
2023-03-05T20:24:05.398Z,81.71
2023-03-05T20:29:07.162Z,81.28
2023-03-05T20:34:14.493Z,81.29
2023-03-05T20:39:16.013Z,81.42
2023-03-05T20:44:17.440Z,81.73
2023-03-05T20:49:19.241Z,81.51
2023-03-05T20:54:20.782Z,81.67
2023-03-05T20:59:23.258Z,81.43
2023-03-05T21:04:24.830Z,81.86
2023-03-05T21:09:28.745Z,81.34
2023-03-05T21:14:36.111Z,81.42
2023-03-05T21:19:39.014Z,81.77
2023-03-05T21:24:55.564Z,81.96
2023-03-05T21:29:57.017Z,82.02
2023-03-05T21:35:00.303Z,81.12
2023-03-05T21:40:01.874Z,80.91
2023-03-05T21:45:05.174Z,81.74
2023-03-05T21:50:07.572Z,81.20
2023-03-05T21:55:13.976Z,80.82
2023-03-05T22:00:18.118Z,80.51
2023-03-05T22:05:19.721Z,80.79
2023-03-05T22:10:21.164Z,80.65
2023-03-05T22:15:23.871Z,81.35
2023-03-05T22:20:25.620Z,80.69
2023-03-05T22:25:27.166Z,80.34
2023-03-05T22:30:28.735Z,80.12
2023-03-05T22:35:30.256Z,79.92
2023-03-05T22:40:31.716Z,79.91
2023-03-05T22:45:33.197Z,80.25
2023-03-05T22:50:34.631Z,80.51
2023-03-05T22:55:41.318Z,79.90
2023-03-05T23:00:42.792Z,79.90
2023-03-05T23:05:44.241Z,79.69
2023-03-05T23:10:45.683Z,80.13
2023-03-05T23:15:47.215Z,79.83
2023-03-05T23:20:48.673Z,79.53
2023-03-05T23:25:51.260Z,79.92
2023-03-05T23:30:52.744Z,80.86
2023-03-05T23:35:57.425Z,79.86
2023-03-05T23:41:01.419Z,79.91
2023-03-05T23:46:03.026Z,80.07
2023-03-05T23:51:09.157Z,79.73
2023-03-05T23:56:11.598Z,79.78
